createdAt,value
2022-12-19T00:01:53.511Z,-14.27
2022-12-19T00:04:21.280Z,-14.28
2022-12-19T00:06:48.840Z,-14.24
2022-12-19T00:09:16.460Z,-14.17
2022-12-19T00:11:44.058Z,-14.14
2022-12-19T00:14:12.248Z,-14.22
2022-12-19T00:16:40.017Z,-14.31
2022-12-19T00:19:09.673Z,-14.40
2022-12-19T00:21:38.124Z,-14.42
2022-12-19T00:24:18.420Z,-14.40
2022-12-19T00:26:49.870Z,-14.39
2022-12-19T00:29:17.579Z,-14.37
2022-12-19T00:31:45.530Z,-14.35
2022-12-19T00:34:13.219Z,-14.31
2022-12-19T00:36:41.289Z,-14.23
2022-12-19T00:39:09.354Z,-14.13
2022-12-19T00:41:40.066Z,-14.14
2022-12-19T00:44:14.342Z,-14.12
2022-12-19T00:46:42.710Z,-14.14
2022-12-19T00:49:12.851Z,-14.15
2022-12-19T00:51:40.728Z,-14.12
2022-12-19T00:54:10.211Z,-14.12
2022-12-19T00:56:38.506Z,-14.19
2022-12-19T00:59:07.076Z,-14.20
2022-12-19T01:01:37.657Z,-14.19
2022-12-19T01:06:57.906Z,-14.16
2022-12-19T01:09:30.942Z,-14.08
2022-12-19T01:11:58.871Z,-14.00
2022-12-19T01:14:26.803Z,-13.98
2022-12-19T01:16:54.534Z,-13.97
2022-12-19T01:19:22.563Z,-13.93
2022-12-19T01:21:50.422Z,-13.88
2022-12-19T01:24:19.100Z,-13.88
2022-12-19T01:26:47.371Z,-13.82
2022-12-19T01:29:15.423Z,-13.76
2022-12-19T01:31:43.458Z,-13.83
2022-12-19T01:34:11.320Z,-13.93
2022-12-19T01:36:40.073Z,-14.00
2022-12-19T01:39:08.373Z,-14.03
2022-12-19T01:41:37.574Z,-14.06
2022-12-19T01:44:08.209Z,-14.14
2022-12-19T01:46:37.655Z,-14.21
2022-12-19T01:49:10.008Z,-14.28
2022-12-19T01:51:43.433Z,-14.30
2022-12-19T01:54:17.581Z,-14.38
2022-12-19T01:56:50.289Z,-14.50
2022-12-19T01:59:22.506Z,-14.52
2022-12-19T02:01:55.598Z,-14.51
2022-12-19T02:04:26.296Z,-14.42
2022-12-19T02:07:14.395Z,-14.36
2022-12-19T02:09:56.644Z,-14.32
2022-12-19T02:12:28.458Z,-14.30
2022-12-19T02:15:02.804Z,-14.37
2022-12-19T02:17:33.695Z,-14.41
2022-12-19T02:20:33.934Z,-14.38
2022-12-19T02:23:17.075Z,-14.41
2022-12-19T02:25:56.765Z,-14.44
2022-12-19T02:28:43.216Z,-14.50
2022-12-19T02:31:17.846Z,-14.56
2022-12-19T02:34:10.468Z,-14.61
2022-12-19T02:36:48.906Z,-14.59
2022-12-19T02:39:26.617Z,-14.52
2022-12-19T02:41:58.225Z,-14.41
2022-12-19T02:44:41.257Z,-14.32
2022-12-19T02:47:10.049Z,-14.25
2022-12-19T02:49:39.230Z,-14.23
2022-12-19T02:52:10.926Z,-14.22
2022-12-19T02:54:45.213Z,-14.25
2022-12-19T02:57:20.247Z,-14.26
2022-12-19T02:59:58.598Z,-14.26
2022-12-19T03:02:47.500Z,-14.28
2022-12-19T03:05:34.183Z,-14.31
2022-12-19T03:08:21.673Z,-14.35
2022-12-19T03:11:01.416Z,-14.35
2022-12-19T03:13:34.322Z,-14.30
2022-12-19T03:16:04.569Z,-14.30
2022-12-19T03:18:33.591Z,-14.35
2022-12-19T03:21:11.267Z,-14.37
2022-12-19T03:23:40.111Z,-14.38
2022-12-19T03:26:12.418Z,-14.40
2022-12-19T03:28:51.544Z,-14.41
2022-12-19T03:31:23.840Z,-14.40
2022-12-19T03:33:56.730Z,-14.40
2022-12-19T03:36:30.666Z,-14.38
2022-12-19T03:39:01.933Z,-14.38
2022-12-19T03:41:31.551Z,-14.38
2022-12-19T03:43:59.440Z,-14.41
2022-12-19T03:46:27.958Z,-14.49
2022-12-19T03:48:56.060Z,-14.52
2022-12-19T03:51:45.566Z,-14.54
2022-12-19T03:54:27.076Z,-14.55
2022-12-19T03:57:08.526Z,-14.57
2022-12-19T03:59:52.676Z,-14.70
2022-12-19T04:02:22.607Z,-14.78
2022-12-19T04:05:02.522Z,-14.80
2022-12-19T04:07:31.448Z,-14.81
2022-12-19T04:09:59.393Z,-14.88
2022-12-19T04:12:34.261Z,-14.96
2022-12-19T04:15:02.216Z,-14.89
2022-12-19T04:17:49.358Z,-14.75
2022-12-19T04:20:20.984Z,-14.68
2022-12-19T04:22:54.815Z,-14.65
2022-12-19T04:25:29.633Z,-14.57
2022-12-19T04:28:03.411Z,-14.53
2022-12-19T04:30:36.607Z,-14.53
2022-12-19T04:33:05.032Z,-14.58
2022-12-19T04:35:33.134Z,-14.65
2022-12-19T04:38:01.126Z,-14.68
2022-12-19T04:40:29.274Z,-14.71
2022-12-19T04:42:56.839Z,-14.72
2022-12-19T04:45:24.879Z,-14.69
2022-12-19T04:47:53.066Z,-14.68
2022-12-19T04:50:20.890Z,-14.66
2022-12-19T04:52:49.331Z,-14.61
2022-12-19T04:55:18.972Z,-14.69
2022-12-19T04:57:46.930Z,-14.77
2022-12-19T05:00:15.066Z,-14.88
2022-12-19T05:02:42.842Z,-14.91
2022-12-19T05:05:10.544Z,-14.90
2022-12-19T05:07:38.436Z,-14.95
2022-12-19T05:10:07.623Z,-14.95
2022-12-19T05:12:35.586Z,-14.89
2022-12-19T05:15:03.480Z,-14.85
2022-12-19T05:17:31.382Z,-14.80
2022-12-19T05:19:59.069Z,-14.77
2022-12-19T05:22:27.334Z,-14.79
2022-12-19T05:24:54.852Z,-14.97
2022-12-19T05:27:23.087Z,-15.20
2022-12-19T05:29:51.120Z,-15.41
2022-12-19T05:32:18.800Z,-15.54
2022-12-19T05:34:46.680Z,-15.60
2022-12-19T05:37:14.319Z,-15.69
2022-12-19T05:39:42.065Z,-15.70
2022-12-19T05:42:12.474Z,-15.80
2022-12-19T05:44:40.525Z,-15.87
2022-12-19T05:47:08.299Z,-15.93
2022-12-19T05:49:36.043Z,-16.05
2022-12-19T05:52:04.318Z,-16.11
2022-12-19T05:54:32.296Z,-16.16
2022-12-19T05:57:00.016Z,-16.22
2022-12-19T05:59:28.605Z,-16.32
2022-12-19T06:01:56.800Z,-16.40
2022-12-19T06:04:24.896Z,-16.47
2022-12-19T06:06:52.574Z,-16.53
2022-12-19T06:09:20.645Z,-16.61
2022-12-19T06:11:48.717Z,-16.56
2022-12-19T06:14:16.865Z,-16.54
2022-12-19T06:16:44.940Z,-16.56
2022-12-19T06:19:12.575Z,-16.60
2022-12-19T06:21:47.919Z,-16.57
2022-12-19T06:24:16.316Z,-16.54
2022-12-19T06:26:44.673Z,-16.51
2022-12-19T06:29:12.644Z,-16.44
2022-12-19T06:31:40.290Z,-16.43
2022-12-19T06:34:10.521Z,-16.40
2022-12-19T06:36:38.689Z,-16.37
2022-12-19T06:39:06.508Z,-16.34
2022-12-19T06:41:34.099Z,-16.33
2022-12-19T06:44:03.946Z,-16.35
2022-12-19T06:46:32.942Z,-16.36
2022-12-19T06:49:01.081Z,-16.39
2022-12-19T06:51:29.134Z,-16.40
2022-12-19T06:53:57.488Z,-16.39
2022-12-19T06:56:25.594Z,-16.40
2022-12-19T06:58:53.381Z,-16.45
2022-12-19T07:01:23.961Z,-16.42
2022-12-19T07:03:52.310Z,-16.32
2022-12-19T07:06:20.860Z,-16.18
2022-12-19T07:08:48.691Z,-16.13
2022-12-19T07:11:16.509Z,-16.05
2022-12-19T07:13:45.438Z,-16.02
2022-12-19T07:16:14.839Z,-15.99
2022-12-19T07:18:44.342Z,-15.88
2022-12-19T07:21:13.442Z,-15.81
2022-12-19T07:23:41.453Z,-15.68
2022-12-19T07:26:09.371Z,-15.52
2022-12-19T07:28:37.880Z,-15.37
2022-12-19T07:31:05.809Z,-15.21
2022-12-19T07:33:33.631Z,-15.00
2022-12-19T07:36:01.823Z,-14.85
2022-12-19T07:38:29.648Z,-14.75
2022-12-19T07:41:01.072Z,-14.70
2022-12-19T07:43:28.904Z,-14.54
2022-12-19T07:45:56.904Z,-14.42
2022-12-19T07:48:25.126Z,-14.31
2022-12-19T07:50:52.672Z,-14.11
2022-12-19T07:53:20.490Z,-13.88
2022-12-19T07:55:52.547Z,-13.65
2022-12-19T07:58:20.219Z,-13.46
2022-12-19T08:00:56.001Z,-13.27
2022-12-19T08:03:24.617Z,-13.17
2022-12-19T08:05:52.750Z,-13.08
2022-12-19T08:08:20.627Z,-12.98
2022-12-19T08:10:48.649Z,-13.02
2022-12-19T08:13:16.508Z,-13.04
2022-12-19T08:15:44.431Z,-13.01
2022-12-19T08:18:12.624Z,-12.94
2022-12-19T08:20:43.502Z,-12.83
2022-12-19T08:23:11.663Z,-12.65
2022-12-19T08:25:39.292Z,-12.54
2022-12-19T08:28:07.150Z,-12.49
2022-12-19T08:30:35.196Z,-12.40
2022-12-19T08:33:03.474Z,-12.31
2022-12-19T08:35:31.534Z,-12.17
2022-12-19T08:37:59.376Z,-12.01
2022-12-19T08:40:27.019Z,-11.81
2022-12-19T08:42:55.650Z,-11.65
2022-12-19T08:45:23.375Z,-11.47
2022-12-19T08:47:51.199Z,-11.25
2022-12-19T08:50:19.063Z,-11.04
2022-12-19T08:52:47.212Z,-10.89
2022-12-19T08:55:15.604Z,-10.75
2022-12-19T08:57:47.591Z,-10.62
2022-12-19T09:00:16.080Z,-10.48
2022-12-19T09:02:44.842Z,-10.38
2022-12-19T09:06:02.217Z,-10.25
2022-12-19T09:08:00.870Z,-10.14
2022-12-19T09:10:28.856Z,-10.03
2022-12-19T09:12:57.948Z,-9.90
2022-12-19T09:15:25.981Z,-9.78
2022-12-19T09:17:53.913Z,-9.67
2022-12-19T09:20:23.559Z,-9.55
2022-12-19T09:22:51.606Z,-9.38
2022-12-19T09:25:19.196Z,-9.20
2022-12-19T09:28:25.283Z,-9.05
2022-12-19T09:30:35.524Z,-8.91
2022-12-19T09:33:03.194Z,-8.78
2022-12-19T09:35:31.149Z,-8.60
2022-12-19T09:38:00.506Z,-8.40
2022-12-19T12:46:38.305Z,0.70
2022-12-19T12:49:23.078Z,0.17
2022-12-19T12:51:51.961Z,-0.08
2022-12-19T12:54:20.735Z,-0.25
2022-12-19T12:56:48.823Z,-0.42
2022-12-19T12:59:21.409Z,-0.59
2022-12-19T13:01:52.151Z,-0.77
2022-12-19T13:04:26.195Z,-0.98
2022-12-19T13:06:53.715Z,-1.15
2022-12-19T13:09:27.246Z,-1.23
2022-12-19T13:12:02.548Z,-1.28
2022-12-19T13:14:36.558Z,-1.27
2022-12-19T13:17:06.200Z,-1.24
2022-12-19T13:19:38.329Z,-1.20
2022-12-19T13:22:08.824Z,-0.90
2022-12-19T13:24:48.529Z,-0.56
2022-12-19T13:27:19.035Z,-0.19
2022-12-19T13:30:02.206Z,0.09
2022-12-19T13:32:53.935Z,0.41
2022-12-19T13:36:38.611Z,0.60
2022-12-19T13:39:55.642Z,0.72
2022-12-19T13:41:05.860Z,0.57
2022-12-19T13:43:39.203Z,0.25
2022-12-19T13:46:18.837Z,-0.23
2022-12-19T13:48:52.343Z,-0.68
2022-12-19T13:51:20.067Z,-1.02
2022-12-19T13:53:59.034Z,-1.22
2022-12-19T13:56:30.364Z,-1.41
2022-12-19T13:58:59.315Z,-1.70
2022-12-19T14:01:28.036Z,-2.07
2022-12-19T14:04:07.659Z,-2.42
2022-12-19T14:06:47.536Z,-2.74
2022-12-19T14:11:28.167Z,-3.06
2022-12-19T14:13:40.421Z,-3.41
2022-12-19T14:15:32.452Z,-3.70
2022-12-19T14:18:44.819Z,-3.93
2022-12-19T14:22:11.645Z,-4.22
2022-12-19T14:24:21.939Z,-4.54
2022-12-19T14:28:20.708Z,-4.76
2022-12-19T14:30:29.692Z,-5.03
2022-12-19T14:33:41.969Z,-5.33
2022-12-19T14:36:10.213Z,-5.68
2022-12-19T14:39:23.376Z,-5.95
2022-12-19T14:41:29.521Z,-6.18
2022-12-19T14:52:34.729Z,-6.37
2022-12-19T14:54:03.816Z,-6.67
2022-12-19T14:54:07.203Z,-6.89
2022-12-19T14:54:21.298Z,-7.06
2022-12-19T14:56:15.944Z,-7.24
2022-12-19T14:58:52.848Z,-7.34
2022-12-19T15:01:24.176Z,-7.44
2022-12-19T15:04:47.833Z,-7.50
2022-12-19T15:07:09.670Z,-7.57
2022-12-19T15:11:06.501Z,-7.73
2022-12-19T15:14:04.191Z,-7.96
2022-12-19T15:15:23.048Z,-8.20
2022-12-19T15:17:54.461Z,-8.37
2022-12-19T15:20:22.419Z,-8.55
2022-12-19T15:22:50.095Z,-8.70
2022-12-19T15:25:44.052Z,-8.76
2022-12-19T15:28:17.737Z,-8.71
2022-12-19T15:30:50.507Z,-8.67
2022-12-19T15:33:18.183Z,-8.69
2022-12-19T15:35:45.765Z,-8.75
2022-12-19T15:38:13.306Z,-8.81
2022-12-19T15:40:41.990Z,-8.83
2022-12-19T15:43:44.885Z,-8.82
2022-12-19T15:46:06.053Z,-8.83
2022-12-19T15:48:37.424Z,-8.90
2022-12-19T15:51:05.528Z,-8.95
2022-12-19T15:53:40.804Z,-9.02
2022-12-19T15:56:26.897Z,-9.11
2022-12-19T15:58:57.353Z,-9.21
2022-12-19T16:01:26.113Z,-9.28
2022-12-19T16:03:54.350Z,-9.32
2022-12-19T16:06:22.365Z,-9.32
2022-12-19T16:08:49.974Z,-9.28
2022-12-19T16:11:23.586Z,-9.20
2022-12-19T16:13:54.159Z,-9.07
2022-12-19T16:16:23.407Z,-8.95
2022-12-19T16:18:51.239Z,-8.83
2022-12-19T16:21:23.648Z,-8.77
2022-12-19T16:23:54.979Z,-8.68
2022-12-19T16:26:34.833Z,-8.59
2022-12-19T16:29:03.150Z,-8.53
2022-12-19T16:31:30.824Z,-8.51
2022-12-19T16:33:58.478Z,-8.52
2022-12-19T16:36:26.086Z,-8.52
2022-12-19T16:38:53.648Z,-8.54
2022-12-19T16:41:24.469Z,-8.58
2022-12-19T16:43:52.596Z,-8.63
2022-12-19T16:46:22.997Z,-8.72
2022-12-19T16:48:50.594Z,-8.83
2022-12-19T16:51:21.562Z,-8.94
2022-12-19T16:53:49.840Z,-9.05
2022-12-19T16:56:43.636Z,-9.16
2022-12-19T16:59:22.635Z,-9.21
2022-12-19T17:01:51.320Z,-9.26
2022-12-19T17:04:22.764Z,-9.28
2022-12-19T17:06:54.237Z,-9.34
2022-12-19T17:09:25.337Z,-9.39
2022-12-19T17:11:57.281Z,-9.42
2022-12-19T17:14:27.232Z,-9.43
2022-12-19T17:16:55.949Z,-9.42
2022-12-19T17:19:34.445Z,-9.40
2022-12-19T17:22:02.176Z,-9.33
2022-12-19T17:24:29.755Z,-9.27
2022-12-19T17:26:57.311Z,-9.13
2022-12-19T17:29:24.922Z,-9.04
2022-12-19T17:31:52.619Z,-8.96
2022-12-19T17:34:30.782Z,-8.93
2022-12-19T17:36:59.281Z,-8.89
2022-12-19T17:39:30.310Z,-8.85
2022-12-19T17:42:01.478Z,-8.79
2022-12-19T17:44:29.056Z,-8.72
2022-12-19T17:46:56.639Z,-8.64
2022-12-19T17:49:30.298Z,-8.53
2022-12-19T17:51:59.713Z,-8.37
2022-12-19T17:54:27.591Z,-8.18
2022-12-19T17:56:55.596Z,-7.99
2022-12-19T17:59:23.218Z,-7.77
2022-12-19T18:01:50.935Z,-7.57
2022-12-19T18:04:20.228Z,-7.34
2022-12-19T18:06:48.515Z,-7.00
2022-12-19T18:09:21.228Z,-6.66
2022-12-19T18:11:55.969Z,-6.35
2022-12-19T18:14:24.043Z,-6.09
2022-12-19T18:16:51.794Z,-5.89
2022-12-19T18:19:22.471Z,-5.72
2022-12-19T18:21:50.268Z,-5.56
2022-12-19T18:24:17.813Z,-5.42
2022-12-19T18:26:45.979Z,-5.30
2022-12-19T18:29:14.070Z,-5.23
2022-12-19T18:31:49.763Z,-5.12
2022-12-19T18:34:21.493Z,-5.03
2022-12-19T18:36:49.294Z,-4.99
2022-12-19T18:39:21.327Z,-4.97
2022-12-19T18:41:49.843Z,-4.97
2022-12-19T18:44:17.862Z,-4.98
2022-12-19T18:46:48.517Z,-5.00
2022-12-19T18:49:17.477Z,-5.01
2022-12-19T18:51:45.280Z,-4.95
2022-12-19T18:54:15.629Z,-4.90
2022-12-19T18:56:43.488Z,-4.86
2022-12-19T18:59:11.484Z,-4.84
2022-12-19T19:01:43.246Z,-4.82
2022-12-19T19:04:11.131Z,-4.81
2022-12-19T19:06:40.277Z,-4.80
2022-12-19T19:09:16.446Z,-4.78
2022-12-19T19:11:44.256Z,-4.68
2022-12-19T19:14:11.922Z,-4.62
2022-12-19T19:16:39.889Z,-4.60
2022-12-19T19:19:11.911Z,-4.56
2022-12-19T19:21:39.500Z,-4.53
2022-12-19T19:24:25.314Z,-4.50
2022-12-19T19:26:52.854Z,-4.47
2022-12-19T19:29:20.422Z,-4.45
2022-12-19T19:31:51.745Z,-4.43
2022-12-19T19:34:28.213Z,-4.35
2022-12-19T19:36:58.547Z,-4.26
2022-12-19T19:39:26.852Z,-4.22
2022-12-19T19:41:55.012Z,-4.18
2022-12-19T19:44:24.144Z,-4.16
2022-12-19T19:46:51.797Z,-4.13
2022-12-19T19:49:23.047Z,-4.12
2022-12-19T19:52:00.289Z,-4.11
2022-12-19T19:54:31.335Z,-4.09
2022-12-19T19:56:58.879Z,-4.01
2022-12-19T19:59:29.972Z,-3.96
2022-12-19T20:01:57.642Z,-3.95
2022-12-19T20:04:25.719Z,-3.93
2022-12-19T20:06:53.323Z,-3.91
2022-12-19T20:09:20.924Z,-3.88
2022-12-19T20:11:48.484Z,-3.86
2022-12-19T20:14:16.076Z,-3.82
2022-12-19T20:16:43.739Z,-3.72
2022-12-19T20:19:11.408Z,-3.63
2022-12-19T20:21:38.978Z,-3.57
2022-12-19T20:24:06.690Z,-3.53
2022-12-19T20:26:34.911Z,-3.49
2022-12-19T20:29:03.263Z,-3.45
2022-12-19T20:31:30.905Z,-3.37
2022-12-19T20:33:58.770Z,-3.22
2022-12-19T20:36:26.345Z,-3.07
2022-12-19T20:38:53.913Z,-2.96
2022-12-19T20:41:21.586Z,-2.89
2022-12-19T20:43:49.193Z,-2.83
2022-12-19T20:46:19.377Z,-2.78
2022-12-19T20:48:48.036Z,-2.74
2022-12-19T20:51:17.822Z,-2.72
2022-12-19T20:53:45.919Z,-2.70
2022-12-19T20:56:18.704Z,-2.69
2022-12-19T20:58:46.787Z,-2.63
2022-12-19T21:01:22.592Z,-2.59
2022-12-19T21:03:51.003Z,-2.61
2022-12-19T21:06:20.443Z,-2.62
2022-12-19T21:08:48.423Z,-2.66
2022-12-19T21:11:16.231Z,-2.69
2022-12-19T21:13:44.737Z,-2.73
2022-12-19T21:16:15.062Z,-2.75
2022-12-19T21:18:44.585Z,-2.77
2022-12-19T21:21:16.362Z,-2.76
2022-12-19T21:23:44.275Z,-2.69
2022-12-19T21:26:11.899Z,-2.61
2022-12-19T21:28:39.522Z,-2.55
2022-12-19T21:31:20.472Z,-2.51
2022-12-19T21:33:49.085Z,-2.46
2022-12-19T21:36:20.553Z,-2.42
2022-12-19T21:38:50.595Z,-2.37
2022-12-19T21:41:18.746Z,-2.32
2022-12-19T21:43:48.184Z,-2.27
2022-12-19T21:46:16.689Z,-2.17
2022-12-19T21:48:47.377Z,-2.07
2022-12-19T21:51:15.690Z,-2.03
2022-12-19T21:53:43.289Z,-2.02
2022-12-19T21:56:16.513Z,-2.00
2022-12-19T21:58:44.101Z,-1.98
2022-12-19T22:01:13.386Z,-1.97
2022-12-19T22:03:41.378Z,-1.89
2022-12-19T22:06:18.785Z,-1.83
2022-12-19T22:08:49.331Z,-1.82
2022-12-19T22:11:20.416Z,-1.81
2022-12-19T22:13:49.180Z,-1.80
2022-12-19T22:16:17.578Z,-1.80
2022-12-19T22:18:46.171Z,-1.79
2022-12-19T22:21:15.427Z,-1.78
2022-12-19T22:23:43.153Z,-1.71
2022-12-19T22:26:16.293Z,-1.63
2022-12-19T22:28:46.505Z,-1.60
2022-12-19T22:31:21.593Z,-1.60
2022-12-19T22:33:51.813Z,-1.59
2022-12-19T22:36:27.593Z,-1.59
2022-12-19T22:38:57.124Z,-1.59
2022-12-19T22:41:24.937Z,-1.59
2022-12-19T22:43:53.304Z,-1.52
2022-12-19T22:46:23.688Z,-1.48
2022-12-19T22:48:51.340Z,-1.47
2022-12-19T22:51:20.131Z,-1.46
2022-12-19T22:53:47.969Z,-1.45
2022-12-19T22:56:21.312Z,-1.45
2022-12-19T22:58:50.975Z,-1.44
2022-12-19T23:01:24.009Z,-1.40
2022-12-19T23:03:54.175Z,-1.33
2022-12-19T23:06:23.682Z,-1.29
2022-12-19T23:08:51.914Z,-1.28
2022-12-19T23:11:24.295Z,-1.26
2022-12-19T23:13:52.065Z,-1.25
2022-12-19T23:16:19.693Z,-1.26
2022-12-19T23:18:47.285Z,-1.24
2022-12-19T23:21:17.582Z,-1.18
2022-12-19T23:23:47.613Z,-1.14
2022-12-19T23:26:18.251Z,-1.12
2022-12-19T23:28:52.722Z,-1.11
2022-12-19T23:31:20.442Z,-1.10
2022-12-19T23:33:48.096Z,-1.09
2022-12-19T23:36:16.418Z,-1.10
2022-12-19T23:38:44.465Z,-1.10
2022-12-19T23:41:14.730Z,-1.05
2022-12-19T23:43:42.662Z,-1.01
2022-12-19T23:46:16.187Z,-0.99
2022-12-19T23:48:44.393Z,-1.01
2022-12-19T23:51:17.452Z,-1.02
2022-12-19T23:53:45.830Z,-1.04
2022-12-19T23:56:22.167Z,-1.06
2022-12-19T23:58:50.279Z,-1.07
